sensor_id;sensor_type;location;lat;lon;timestamp;P1;durP1;ratioP1;P2;durP2;ratioP2
4460;SDS011;2243;48.812;9.232;2022-12-07T00:00:49;7.03;;;5.70;;
4460;SDS011;2243;48.812;9.232;2022-12-07T00:03:23;6.80;;;6.20;;
4460;SDS011;2243;48.812;9.232;2022-12-07T00:05:56;8.77;;;6.53;;
4460;SDS011;2243;48.812;9.232;2022-12-07T00:08:29;7.27;;;6.27;;
4460;SDS011;2243;48.812;9.232;2022-12-07T00:11:08;7.70;;;6.90;;
4460;SDS011;2243;48.812;9.232;2022-12-07T00:13:43;7.63;;;6.70;;
4460;SDS011;2243;48.812;9.232;2022-12-07T00:16:16;5.97;;;5.47;;
4460;SDS011;2243;48.812;9.232;2022-12-07T00:18:49;7.97;;;7.17;;
4460;SDS011;2243;48.812;9.232;2022-12-07T00:21:21;9.23;;;7.03;;
4460;SDS011;2243;48.812;9.232;2022-12-07T00:23:54;7.43;;;6.60;;
4460;SDS011;2243;48.812;9.232;2022-12-07T00:26:27;7.23;;;6.60;;
4460;SDS011;2243;48.812;9.232;2022-12-07T00:29:02;7.50;;;6.77;;
4460;SDS011;2243;48.812;9.232;2022-12-07T00:31:36;6.93;;;6.27;;
4460;SDS011;2243;48.812;9.232;2022-12-07T00:34:16;7.67;;;6.93;;
4460;SDS011;2243;48.812;9.232;2022-12-07T00:36:50;8.50;;;7.00;;
4460;SDS011;2243;48.812;9.232;2022-12-07T00:39:21;7.50;;;6.20;;
4460;SDS011;2243;48.812;9.232;2022-12-07T00:41:52;6.77;;;6.10;;
4460;SDS011;2243;48.812;9.232;2022-12-07T00:44:23;8.20;;;7.40;;
4460;SDS011;2243;48.812;9.232;2022-12-07T00:46:54;8.53;;;7.53;;
4460;SDS011;2243;48.812;9.232;2022-12-07T00:49:25;7.93;;;7.10;;
4460;SDS011;2243;48.812;9.232;2022-12-07T00:51:56;8.80;;;7.70;;
4460;SDS011;2243;48.812;9.232;2022-12-07T00:54:28;9.20;;;7.30;;
4460;SDS011;2243;48.812;9.232;2022-12-07T00:56:58;9.57;;;6.30;;
4460;SDS011;2243;48.812;9.232;2022-12-07T00:59:29;7.93;;;6.90;;
4460;SDS011;2243;48.812;9.232;2022-12-07T01:02:00;6.77;;;6.00;;
4460;SDS011;2243;48.812;9.232;2022-12-07T01:04:33;11.40;;;8.07;;
4460;SDS011;2243;48.812;9.232;2022-12-07T01:07:04;9.90;;;7.77;;
4460;SDS011;2243;48.812;9.232;2022-12-07T01:09:35;14.33;;;7.33;;
4460;SDS011;2243;48.812;9.232;2022-12-07T01:12:06;8.83;;;6.53;;
4460;SDS011;2243;48.812;9.232;2022-12-07T01:14:37;8.90;;;7.60;;
4460;SDS011;2243;48.812;9.232;2022-12-07T01:17:08;8.53;;;7.43;;
4460;SDS011;2243;48.812;9.232;2022-12-07T01:19:39;10.03;;;7.50;;
4460;SDS011;2243;48.812;9.232;2022-12-07T01:22:12;9.80;;;7.60;;
4460;SDS011;2243;48.812;9.232;2022-12-07T01:24:42;7.63;;;6.93;;
4460;SDS011;2243;48.812;9.232;2022-12-07T01:27:13;10.53;;;7.97;;
4460;SDS011;2243;48.812;9.232;2022-12-07T01:29:45;8.70;;;7.20;;
4460;SDS011;2243;48.812;9.232;2022-12-07T01:32:16;9.00;;;7.20;;
4460;SDS011;2243;48.812;9.232;2022-12-07T01:34:49;9.47;;;7.03;;
4460;SDS011;2243;48.812;9.232;2022-12-07T01:37:20;10.43;;;7.50;;
4460;SDS011;2243;48.812;9.232;2022-12-07T01:39:52;11.03;;;7.87;;
4460;SDS011;2243;48.812;9.232;2022-12-07T01:42:22;10.37;;;7.90;;
4460;SDS011;2243;48.812;9.232;2022-12-07T01:47:55;9.20;;;7.90;;
4460;SDS011;2243;48.812;9.232;2022-12-07T01:50:27;10.37;;;7.90;;
4460;SDS011;2243;48.812;9.232;2022-12-07T01:53:02;9.30;;;7.77;;
4460;SDS011;2243;48.812;9.232;2022-12-07T01:55:38;11.73;;;8.00;;
4460;SDS011;2243;48.812;9.232;2022-12-07T01:58:13;10.20;;;7.17;;
4460;SDS011;2243;48.812;9.232;2022-12-07T02:00:45;12.90;;;8.27;;
4460;SDS011;2243;48.812;9.232;2022-12-07T02:03:24;10.13;;;7.50;;
4460;SDS011;2243;48.812;9.232;2022-12-07T02:06:18;10.50;;;7.70;;
4460;SDS011;2243;48.812;9.232;2022-12-07T02:08:53;9.83;;;7.40;;
4460;SDS011;2243;48.812;9.232;2022-12-07T02:11:24;14.67;;;8.00;;
4460;SDS011;2243;48.812;9.232;2022-12-07T02:13:55;9.27;;;7.53;;
4460;SDS011;2243;48.812;9.232;2022-12-07T02:16:29;10.33;;;7.57;;
4460;SDS011;2243;48.812;9.232;2022-12-07T02:22:05;9.10;;;7.63;;
4460;SDS011;2243;48.812;9.232;2022-12-07T02:28:06;8.00;;;6.93;;
4460;SDS011;2243;48.812;9.232;2022-12-07T02:30:56;8.93;;;7.57;;
4460;SDS011;2243;48.812;9.232;2022-12-07T02:33:43;10.50;;;8.60;;
4460;SDS011;2243;48.812;9.232;2022-12-07T02:36:37;9.23;;;7.70;;
4460;SDS011;2243;48.812;9.232;2022-12-07T02:39:15;9.60;;;7.23;;
4460;SDS011;2243;48.812;9.232;2022-12-07T02:42:01;8.80;;;7.20;;
4460;SDS011;2243;48.812;9.232;2022-12-07T02:44:40;11.07;;;7.20;;
4460;SDS011;2243;48.812;9.232;2022-12-07T02:47:12;8.23;;;6.43;;
4460;SDS011;2243;48.812;9.232;2022-12-07T02:49:46;15.67;;;7.53;;
4460;SDS011;2243;48.812;9.232;2022-12-07T02:52:17;8.00;;;6.50;;
4460;SDS011;2243;48.812;9.232;2022-12-07T02:54:48;10.43;;;7.20;;
4460;SDS011;2243;48.812;9.232;2022-12-07T03:00:31;10.57;;;8.33;;
4460;SDS011;2243;48.812;9.232;2022-12-07T03:03:16;8.70;;;6.80;;
4460;SDS011;2243;48.812;9.232;2022-12-07T03:08:44;8.30;;;6.90;;
4460;SDS011;2243;48.812;9.232;2022-12-07T03:11:48;7.60;;;6.53;;
4460;SDS011;2243;48.812;9.232;2022-12-07T03:14:30;8.23;;;7.37;;
4460;SDS011;2243;48.812;9.232;2022-12-07T03:17:13;9.10;;;7.37;;
4460;SDS011;2243;48.812;9.232;2022-12-07T03:19:49;9.10;;;6.53;;
4460;SDS011;2243;48.812;9.232;2022-12-07T03:22:26;9.40;;;7.87;;
4460;SDS011;2243;48.812;9.232;2022-12-07T03:25:06;9.13;;;6.80;;
4460;SDS011;2243;48.812;9.232;2022-12-07T03:33:24;6.67;;;6.07;;
4460;SDS011;2243;48.812;9.232;2022-12-07T03:36:25;10.93;;;7.53;;
4460;SDS011;2243;48.812;9.232;2022-12-07T03:39:08;7.50;;;6.70;;
4460;SDS011;2243;48.812;9.232;2022-12-07T03:42:14;8.60;;;6.97;;
4460;SDS011;2243;48.812;9.232;2022-12-07T03:44:45;9.50;;;7.23;;
4460;SDS011;2243;48.812;9.232;2022-12-07T03:47:21;8.33;;;6.70;;
4460;SDS011;2243;48.812;9.232;2022-12-07T03:50:10;12.47;;;7.20;;
4460;SDS011;2243;48.812;9.232;2022-12-07T03:53:22;9.33;;;6.70;;
4460;SDS011;2243;48.812;9.232;2022-12-07T03:56:04;9.13;;;7.00;;
4460;SDS011;2243;48.812;9.232;2022-12-07T03:58:37;8.07;;;6.70;;
4460;SDS011;2243;48.812;9.232;2022-12-07T04:01:09;9.07;;;6.60;;
4460;SDS011;2243;48.812;9.232;2022-12-07T04:03:40;9.27;;;7.40;;
4460;SDS011;2243;48.812;9.232;2022-12-07T04:06:11;9.10;;;7.27;;
4460;SDS011;2243;48.812;9.232;2022-12-07T04:08:42;8.13;;;7.00;;
4460;SDS011;2243;48.812;9.232;2022-12-07T04:11:13;8.30;;;7.00;;
4460;SDS011;2243;48.812;9.232;2022-12-07T04:13:44;8.50;;;6.10;;
4460;SDS011;2243;48.812;9.232;2022-12-07T04:16:33;8.27;;;6.77;;
4460;SDS011;2243;48.812;9.232;2022-12-07T04:19:12;10.13;;;6.73;;
4460;SDS011;2243;48.812;9.232;2022-12-07T04:21:43;13.87;;;7.77;;
4460;SDS011;2243;48.812;9.232;2022-12-07T04:24:14;10.30;;;6.90;;
4460;SDS011;2243;48.812;9.232;2022-12-07T04:26:46;7.80;;;6.50;;
4460;SDS011;2243;48.812;9.232;2022-12-07T04:29:18;7.80;;;6.27;;
4460;SDS011;2243;48.812;9.232;2022-12-07T04:31:50;10.87;;;7.17;;
4460;SDS011;2243;48.812;9.232;2022-12-07T04:34:21;8.97;;;6.90;;
4460;SDS011;2243;48.812;9.232;2022-12-07T04:36:52;7.63;;;6.20;;
4460;SDS011;2243;48.812;9.232;2022-12-07T04:39:25;8.47;;;7.27;;
4460;SDS011;2243;48.812;9.232;2022-12-07T04:42:01;12.30;;;6.87;;
4460;SDS011;2243;48.812;9.232;2022-12-07T04:44:32;9.33;;;6.47;;
4460;SDS011;2243;48.812;9.232;2022-12-07T04:47:03;10.47;;;7.70;;
4460;SDS011;2243;48.812;9.232;2022-12-07T04:49:34;8.87;;;6.30;;
4460;SDS011;2243;48.812;9.232;2022-12-07T04:52:05;10.47;;;7.67;;
4460;SDS011;2243;48.812;9.232;2022-12-07T04:54:36;11.27;;;6.40;;
4460;SDS011;2243;48.812;9.232;2022-12-07T04:57:07;9.90;;;7.50;;
4460;SDS011;2243;48.812;9.232;2022-12-07T04:59:38;7.53;;;6.30;;
4460;SDS011;2243;48.812;9.232;2022-12-07T05:02:14;8.00;;;6.60;;
4460;SDS011;2243;48.812;9.232;2022-12-07T05:04:45;7.60;;;6.43;;
4460;SDS011;2243;48.812;9.232;2022-12-07T05:07:16;7.80;;;6.07;;
4460;SDS011;2243;48.812;9.232;2022-12-07T05:09:47;7.43;;;5.80;;
4460;SDS011;2243;48.812;9.232;2022-12-07T05:12:18;8.23;;;6.20;;
4460;SDS011;2243;48.812;9.232;2022-12-07T05:14:49;6.97;;;6.27;;
4460;SDS011;2243;48.812;9.232;2022-12-07T05:17:19;8.47;;;6.40;;
4460;SDS011;2243;48.812;9.232;2022-12-07T05:19:50;9.73;;;6.63;;
4460;SDS011;2243;48.812;9.232;2022-12-07T05:22:21;9.80;;;7.60;;
4460;SDS011;2243;48.812;9.232;2022-12-07T05:24:52;9.40;;;6.63;;
4460;SDS011;2243;48.812;9.232;2022-12-07T05:27:26;7.90;;;7.20;;
4460;SDS011;2243;48.812;9.232;2022-12-07T05:29:57;9.60;;;7.33;;
4460;SDS011;2243;48.812;9.232;2022-12-07T05:32:28;8.80;;;6.23;;
4460;SDS011;2243;48.812;9.232;2022-12-07T05:34:59;10.97;;;8.07;;
4460;SDS011;2243;48.812;9.232;2022-12-07T05:37:29;10.60;;;8.20;;
4460;SDS011;2243;48.812;9.232;2022-12-07T05:40:00;9.90;;;7.30;;
4460;SDS011;2243;48.812;9.232;2022-12-07T05:42:32;9.67;;;6.80;;
4460;SDS011;2243;48.812;9.232;2022-12-07T05:45:03;9.70;;;7.70;;
4460;SDS011;2243;48.812;9.232;2022-12-07T05:47:34;8.90;;;6.60;;
4460;SDS011;2243;48.812;9.232;2022-12-07T05:50:06;10.83;;;7.10;;
4460;SDS011;2243;48.812;9.232;2022-12-07T05:52:37;8.30;;;6.53;;
4460;SDS011;2243;48.812;9.232;2022-12-07T05:55:08;8.80;;;6.73;;
4460;SDS011;2243;48.812;9.232;2022-12-07T05:57:39;7.30;;;6.30;;
4460;SDS011;2243;48.812;9.232;2022-12-07T06:00:30;14.60;;;7.40;;
4460;SDS011;2243;48.812;9.232;2022-12-07T06:03:01;10.47;;;7.77;;
4460;SDS011;2243;48.812;9.232;2022-12-07T06:05:32;12.70;;;7.90;;
4460;SDS011;2243;48.812;9.232;2022-12-07T06:08:03;11.30;;;7.77;;
4460;SDS011;2243;48.812;9.232;2022-12-07T06:10:35;9.10;;;7.40;;
4460;SDS011;2243;48.812;9.232;2022-12-07T06:13:06;9.53;;;6.50;;
4460;SDS011;2243;48.812;9.232;2022-12-07T06:15:37;10.30;;;7.40;;
4460;SDS011;2243;48.812;9.232;2022-12-07T06:18:08;10.53;;;7.53;;
4460;SDS011;2243;48.812;9.232;2022-12-07T06:20:39;11.90;;;8.47;;
4460;SDS011;2243;48.812;9.232;2022-12-07T06:23:10;12.43;;;6.97;;
4460;SDS011;2243;48.812;9.232;2022-12-07T06:25:44;10.23;;;7.97;;
4460;SDS011;2243;48.812;9.232;2022-12-07T06:28:16;15.23;;;8.60;;
4460;SDS011;2243;48.812;9.232;2022-12-07T06:30:47;15.50;;;8.63;;
4460;SDS011;2243;48.812;9.232;2022-12-07T06:33:18;10.27;;;7.27;;
4460;SDS011;2243;48.812;9.232;2022-12-07T06:35:48;9.27;;;7.27;;
4460;SDS011;2243;48.812;9.232;2022-12-07T06:38:19;7.37;;;6.17;;
4460;SDS011;2243;48.812;9.232;2022-12-07T06:40:51;8.93;;;6.87;;
4460;SDS011;2243;48.812;9.232;2022-12-07T06:43:21;10.87;;;8.03;;
4460;SDS011;2243;48.812;9.232;2022-12-07T06:45:52;8.20;;;6.73;;
4460;SDS011;2243;48.812;9.232;2022-12-07T06:48:23;10.20;;;7.37;;
4460;SDS011;2243;48.812;9.232;2022-12-07T06:50:55;7.63;;;6.83;;
4460;SDS011;2243;48.812;9.232;2022-12-07T06:53:26;12.13;;;6.63;;
4460;SDS011;2243;48.812;9.232;2022-12-07T06:55:56;11.17;;;7.80;;
4460;SDS011;2243;48.812;9.232;2022-12-07T06:58:27;12.40;;;8.10;;
4460;SDS011;2243;48.812;9.232;2022-12-07T07:00:58;8.47;;;6.93;;
4460;SDS011;2243;48.812;9.232;2022-12-07T07:03:29;10.13;;;6.80;;
4460;SDS011;2243;48.812;9.232;2022-12-07T07:06:00;9.17;;;6.67;;
4460;SDS011;2243;48.812;9.232;2022-12-07T07:08:31;13.27;;;8.40;;
4460;SDS011;2243;48.812;9.232;2022-12-07T07:11:02;9.63;;;7.33;;
4460;SDS011;2243;48.812;9.232;2022-12-07T07:13:34;8.77;;;7.53;;
4460;SDS011;2243;48.812;9.232;2022-12-07T07:16:06;12.37;;;7.33;;
4460;SDS011;2243;48.812;9.232;2022-12-07T07:18:37;9.17;;;6.50;;
4460;SDS011;2243;48.812;9.232;2022-12-07T07:21:08;7.17;;;6.47;;
4460;SDS011;2243;48.812;9.232;2022-12-07T07:23:39;11.87;;;6.77;;
4460;SDS011;2243;48.812;9.232;2022-12-07T07:26:10;13.73;;;6.53;;
4460;SDS011;2243;48.812;9.232;2022-12-07T07:28:41;9.30;;;7.30;;
4460;SDS011;2243;48.812;9.232;2022-12-07T07:31:12;8.30;;;6.80;;
4460;SDS011;2243;48.812;9.232;2022-12-07T07:33:43;8.23;;;6.83;;
4460;SDS011;2243;48.812;9.232;2022-12-07T07:36:16;15.60;;;7.60;;
4460;SDS011;2243;48.812;9.232;2022-12-07T07:38:47;15.83;;;7.13;;
4460;SDS011;2243;48.812;9.232;2022-12-07T07:41:18;9.57;;;7.80;;
4460;SDS011;2243;48.812;9.232;2022-12-07T07:43:49;14.07;;;7.47;;
4460;SDS011;2243;48.812;9.232;2022-12-07T07:46:20;9.70;;;6.43;;
4460;SDS011;2243;48.812;9.232;2022-12-07T07:48:51;8.33;;;6.30;;
4460;SDS011;2243;48.812;9.232;2022-12-07T07:51:22;9.73;;;5.77;;
4460;SDS011;2243;48.812;9.232;2022-12-07T07:53:53;6.03;;;4.90;;
4460;SDS011;2243;48.812;9.232;2022-12-07T07:56:24;7.30;;;5.37;;
4460;SDS011;2243;48.812;9.232;2022-12-07T07:58:55;8.00;;;5.60;;
4460;SDS011;2243;48.812;9.232;2022-12-07T08:01:26;5.00;;;4.43;;
4460;SDS011;2243;48.812;9.232;2022-12-07T08:03:57;4.70;;;4.30;;
4460;SDS011;2243;48.812;9.232;2022-12-07T08:06:28;5.40;;;4.90;;
4460;SDS011;2243;48.812;9.232;2022-12-07T08:09:02;6.57;;;4.10;;
4460;SDS011;2243;48.812;9.232;2022-12-07T08:11:35;4.27;;;3.87;;
4460;SDS011;2243;48.812;9.232;2022-12-07T08:14:06;5.70;;;4.27;;
4460;SDS011;2243;48.812;9.232;2022-12-07T08:16:37;6.67;;;4.50;;
4460;SDS011;2243;48.812;9.232;2022-12-07T08:19:08;5.80;;;5.30;;
4460;SDS011;2243;48.812;9.232;2022-12-07T08:21:39;4.93;;;4.40;;
4460;SDS011;2243;48.812;9.232;2022-12-07T08:24:10;5.00;;;4.23;;
4460;SDS011;2243;48.812;9.232;2022-12-07T08:26:41;6.00;;;4.77;;
4460;SDS011;2243;48.812;9.232;2022-12-07T08:29:12;6.60;;;4.70;;
4460;SDS011;2243;48.812;9.232;2022-12-07T08:31:43;5.33;;;4.40;;
4460;SDS011;2243;48.812;9.232;2022-12-07T08:34:14;6.00;;;4.43;;
4460;SDS011;2243;48.812;9.232;2022-12-07T08:36:45;5.50;;;4.90;;
4460;SDS011;2243;48.812;9.232;2022-12-07T08:39:16;8.47;;;5.90;;
4460;SDS011;2243;48.812;9.232;2022-12-07T08:42:02;5.53;;;4.80;;
4460;SDS011;2243;48.812;9.232;2022-12-07T08:44:33;7.60;;;4.83;;
4460;SDS011;2243;48.812;9.232;2022-12-07T08:47:07;5.83;;;4.83;;
4460;SDS011;2243;48.812;9.232;2022-12-07T08:49:40;4.90;;;4.40;;
4460;SDS011;2243;48.812;9.232;2022-12-07T08:52:16;4.40;;;3.93;;
4460;SDS011;2243;48.812;9.232;2022-12-07T08:54:47;7.17;;;4.33;;
4460;SDS011;2243;48.812;9.232;2022-12-07T08:57:19;7.63;;;4.90;;
4460;SDS011;2243;48.812;9.232;2022-12-07T08:59:49;7.50;;;4.80;;
4460;SDS011;2243;48.812;9.232;2022-12-07T09:02:20;4.67;;;4.10;;
4460;SDS011;2243;48.812;9.232;2022-12-07T09:04:51;4.77;;;4.00;;
4460;SDS011;2243;48.812;9.232;2022-12-07T09:07:22;4.60;;;4.20;;
4460;SDS011;2243;48.812;9.232;2022-12-07T09:09:54;5.47;;;4.90;;
4460;SDS011;2243;48.812;9.232;2022-12-07T09:12:26;5.33;;;4.83;;
4460;SDS011;2243;48.812;9.232;2022-12-07T09:14:57;4.60;;;4.23;;
4460;SDS011;2243;48.812;9.232;2022-12-07T09:17:31;7.00;;;4.60;;
4460;SDS011;2243;48.812;9.232;2022-12-07T09:20:06;5.70;;;5.10;;
4460;SDS011;2243;48.812;9.232;2022-12-07T09:22:38;5.03;;;4.53;;
4460;SDS011;2243;48.812;9.232;2022-12-07T09:25:08;5.60;;;4.43;;
4460;SDS011;2243;48.812;9.232;2022-12-07T09:27:39;4.70;;;4.30;;
4460;SDS011;2243;48.812;9.232;2022-12-07T09:30:12;9.43;;;4.77;;
4460;SDS011;2243;48.812;9.232;2022-12-07T09:32:43;4.53;;;4.13;;
4460;SDS011;2243;48.812;9.232;2022-12-07T09:35:14;7.23;;;4.97;;
4460;SDS011;2243;48.812;9.232;2022-12-07T09:37:45;5.27;;;4.43;;
4460;SDS011;2243;48.812;9.232;2022-12-07T09:40:16;6.13;;;4.60;;
4460;SDS011;2243;48.812;9.232;2022-12-07T09:42:53;3.37;;;3.17;;
4460;SDS011;2243;48.812;9.232;2022-12-07T09:45:31;4.17;;;3.87;;
4460;SDS011;2243;48.812;9.232;2022-12-07T09:48:09;2.83;;;2.63;;
4460;SDS011;2243;48.812;9.232;2022-12-07T09:50:50;2.93;;;2.80;;
4460;SDS011;2243;48.812;9.232;2022-12-07T09:53:24;4.10;;;2.80;;
4460;SDS011;2243;48.812;9.232;2022-12-07T09:55:59;2.40;;;2.23;;
4460;SDS011;2243;48.812;9.232;2022-12-07T09:58:31;3.43;;;3.13;;
4460;SDS011;2243;48.812;9.232;2022-12-07T10:03:40;6.73;;;3.87;;
4460;SDS011;2243;48.812;9.232;2022-12-07T10:06:52;4.93;;;3.70;;
4460;SDS011;2243;48.812;9.232;2022-12-07T10:09:23;4.63;;;4.17;;
4460;SDS011;2243;48.812;9.232;2022-12-07T10:12:05;4.30;;;3.10;;
4460;SDS011;2243;48.812;9.232;2022-12-07T10:15:15;3.10;;;2.90;;
4460;SDS011;2243;48.812;9.232;2022-12-07T10:17:39;3.53;;;3.23;;
4460;SDS011;2243;48.812;9.232;2022-12-07T10:23:07;3.57;;;2.73;;
4460;SDS011;2243;48.812;9.232;2022-12-07T10:25:48;4.10;;;3.40;;
4460;SDS011;2243;48.812;9.232;2022-12-07T10:28:19;4.00;;;3.70;;
4460;SDS011;2243;48.812;9.232;2022-12-07T10:30:52;6.10;;;5.00;;
4460;SDS011;2243;48.812;9.232;2022-12-07T10:36:34;5.03;;;4.53;;
4460;SDS011;2243;48.812;9.232;2022-12-07T10:39:11;4.73;;;4.33;;
4460;SDS011;2243;48.812;9.232;2022-12-07T10:41:52;3.80;;;3.50;;
4460;SDS011;2243;48.812;9.232;2022-12-07T10:44:33;5.07;;;3.73;;
4460;SDS011;2243;48.812;9.232;2022-12-07T10:53:13;5.80;;;5.30;;
4460;SDS011;2243;48.812;9.232;2022-12-07T11:07:22;6.30;;;4.67;;
4460;SDS011;2243;48.812;9.232;2022-12-07T11:13:05;3.83;;;3.53;;
4460;SDS011;2243;48.812;9.232;2022-12-07T11:18:55;3.47;;;3.20;;
4460;SDS011;2243;48.812;9.232;2022-12-07T11:24:40;3.03;;;2.83;;
4460;SDS011;2243;48.812;9.232;2022-12-07T11:27:37;4.17;;;3.87;;
4460;SDS011;2243;48.812;9.232;2022-12-07T11:30:23;3.50;;;3.30;;
4460;SDS011;2243;48.812;9.232;2022-12-07T11:33:19;3.47;;;3.17;;
4460;SDS011;2243;48.812;9.232;2022-12-07T11:36:02;2.90;;;2.70;;
4460;SDS011;2243;48.812;9.232;2022-12-07T11:38:50;2.70;;;2.50;;
4460;SDS011;2243;48.812;9.232;2022-12-07T11:41:28;4.77;;;2.87;;
4460;SDS011;2243;48.812;9.232;2022-12-07T11:47:06;3.27;;;3.10;;
4460;SDS011;2243;48.812;9.232;2022-12-07T11:52:57;3.37;;;3.10;;
4460;SDS011;2243;48.812;9.232;2022-12-07T12:07:02;6.80;;;5.80;;
4460;SDS011;2243;48.812;9.232;2022-12-07T12:19:03;6.40;;;5.60;;
4460;SDS011;2243;48.812;9.232;2022-12-07T12:22:20;5.63;;;5.10;;
4460;SDS011;2243;48.812;9.232;2022-12-07T12:24:57;4.83;;;4.43;;
4460;SDS011;2243;48.812;9.232;2022-12-07T12:27:33;5.37;;;4.93;;
4460;SDS011;2243;48.812;9.232;2022-12-07T12:30:23;7.10;;;5.80;;
4460;SDS011;2243;48.812;9.232;2022-12-07T12:33:22;5.57;;;5.03;;
4460;SDS011;2243;48.812;9.232;2022-12-07T12:36:17;7.20;;;5.43;;
4460;SDS011;2243;48.812;9.232;2022-12-07T12:50:15;7.53;;;4.90;;
4460;SDS011;2243;48.812;9.232;2022-12-07T12:52:54;11.33;;;4.50;;
4460;SDS011;2243;48.812;9.232;2022-12-07T12:58:49;9.67;;;4.60;;
4460;SDS011;2243;48.812;9.232;2022-12-07T13:18:39;9.20;;;5.20;;
4460;SDS011;2243;48.812;9.232;2022-12-07T13:31:56;6.67;;;5.13;;
4460;SDS011;2243;48.812;9.232;2022-12-07T13:34:30;5.23;;;4.73;;
4460;SDS011;2243;48.812;9.232;2022-12-07T13:40:01;5.80;;;5.30;;
4460;SDS011;2243;48.812;9.232;2022-12-07T13:42:57;6.87;;;5.17;;
4460;SDS011;2243;48.812;9.232;2022-12-07T13:45:33;6.30;;;5.63;;
4460;SDS011;2243;48.812;9.232;2022-12-07T13:51:18;8.93;;;5.67;;
4460;SDS011;2243;48.812;9.232;2022-12-07T13:54:01;6.53;;;5.60;;
4460;SDS011;2243;48.812;9.232;2022-12-07T13:56:43;7.83;;;5.03;;
4460;SDS011;2243;48.812;9.232;2022-12-07T13:59:19;7.63;;;6.30;;
4460;SDS011;2243;48.812;9.232;2022-12-07T14:01:54;13.43;;;6.20;;
4460;SDS011;2243;48.812;9.232;2022-12-07T14:04:29;8.00;;;7.20;;
4460;SDS011;2243;48.812;9.232;2022-12-07T14:07:26;8.20;;;5.13;;
4460;SDS011;2243;48.812;9.232;2022-12-07T14:09:59;5.63;;;5.13;;
4460;SDS011;2243;48.812;9.232;2022-12-07T14:12:36;6.73;;;6.00;;
4460;SDS011;2243;48.812;9.232;2022-12-07T14:15:15;11.17;;;6.13;;
4460;SDS011;2243;48.812;9.232;2022-12-07T14:18:01;5.20;;;4.70;;
4460;SDS011;2243;48.812;9.232;2022-12-07T14:20:37;9.83;;;6.23;;
4460;SDS011;2243;48.812;9.232;2022-12-07T14:23:26;6.10;;;5.20;;
4460;SDS011;2243;48.812;9.232;2022-12-07T14:26:05;7.47;;;5.67;;
4460;SDS011;2243;48.812;9.232;2022-12-07T14:28:43;7.10;;;5.53;;
4460;SDS011;2243;48.812;9.232;2022-12-07T14:31:16;7.07;;;6.10;;
4460;SDS011;2243;48.812;9.232;2022-12-07T14:33:59;6.70;;;5.60;;
4460;SDS011;2243;48.812;9.232;2022-12-07T14:36:30;9.07;;;6.17;;
4460;SDS011;2243;48.812;9.232;2022-12-07T14:39:01;6.43;;;5.40;;
4460;SDS011;2243;48.812;9.232;2022-12-07T14:41:32;9.20;;;6.40;;
4460;SDS011;2243;48.812;9.232;2022-12-07T14:44:22;7.50;;;5.93;;
4460;SDS011;2243;48.812;9.232;2022-12-07T14:46:58;7.93;;;6.03;;
4460;SDS011;2243;48.812;9.232;2022-12-07T14:49:49;10.93;;;7.30;;
4460;SDS011;2243;48.812;9.232;2022-12-07T14:52:21;7.30;;;5.60;;
4460;SDS011;2243;48.812;9.232;2022-12-07T14:55:20;7.77;;;6.87;;
4460;SDS011;2243;48.812;9.232;2022-12-07T14:58:00;6.97;;;5.50;;
4460;SDS011;2243;48.812;9.232;2022-12-07T15:00:31;10.63;;;7.00;;
4460;SDS011;2243;48.812;9.232;2022-12-07T15:03:04;8.80;;;6.40;;
4460;SDS011;2243;48.812;9.232;2022-12-07T15:05:35;9.20;;;5.80;;
4460;SDS011;2243;48.812;9.232;2022-12-07T15:08:13;7.63;;;6.00;;
4460;SDS011;2243;48.812;9.232;2022-12-07T15:10:44;7.13;;;6.00;;
4460;SDS011;2243;48.812;9.232;2022-12-07T15:13:15;6.50;;;5.80;;
4460;SDS011;2243;48.812;9.232;2022-12-07T15:16:07;7.40;;;5.47;;
4460;SDS011;2243;48.812;9.232;2022-12-07T15:18:42;8.50;;;6.17;;
4460;SDS011;2243;48.812;9.232;2022-12-07T15:21:33;6.77;;;6.07;;
4460;SDS011;2243;48.812;9.232;2022-12-07T15:24:03;6.73;;;5.50;;
4460;SDS011;2243;48.812;9.232;2022-12-07T15:26:35;8.30;;;6.90;;
4460;SDS011;2243;48.812;9.232;2022-12-07T15:29:07;6.73;;;5.60;;
4460;SDS011;2243;48.812;9.232;2022-12-07T15:31:39;7.37;;;6.60;;
4460;SDS011;2243;48.812;9.232;2022-12-07T15:34:26;7.23;;;5.73;;
4460;SDS011;2243;48.812;9.232;2022-12-07T15:37:07;9.83;;;6.87;;
4460;SDS011;2243;48.812;9.232;2022-12-07T15:39:38;7.03;;;6.33;;
4460;SDS011;2243;48.812;9.232;2022-12-07T15:42:09;9.03;;;5.47;;
4460;SDS011;2243;48.812;9.232;2022-12-07T15:44:40;10.27;;;6.90;;
4460;SDS011;2243;48.812;9.232;2022-12-07T15:47:34;9.30;;;6.40;;
4460;SDS011;2243;48.812;9.232;2022-12-07T15:50:27;6.33;;;5.73;;
4460;SDS011;2243;48.812;9.232;2022-12-07T15:52:58;9.07;;;6.20;;
4460;SDS011;2243;48.812;9.232;2022-12-07T15:55:29;12.17;;;7.30;;
4460;SDS011;2243;48.812;9.232;2022-12-07T15:58:00;12.10;;;7.23;;
4460;SDS011;2243;48.812;9.232;2022-12-07T16:00:31;8.57;;;6.60;;
4460;SDS011;2243;48.812;9.232;2022-12-07T16:03:02;10.87;;;6.83;;
4460;SDS011;2243;48.812;9.232;2022-12-07T16:05:33;10.53;;;7.00;;
4460;SDS011;2243;48.812;9.232;2022-12-07T16:08:04;11.23;;;7.43;;
4460;SDS011;2243;48.812;9.232;2022-12-07T16:10:35;8.17;;;6.97;;
4460;SDS011;2243;48.812;9.232;2022-12-07T16:13:06;10.43;;;6.83;;
4460;SDS011;2243;48.812;9.232;2022-12-07T16:15:40;9.43;;;7.03;;
4460;SDS011;2243;48.812;9.232;2022-12-07T16:18:12;8.77;;;6.83;;
4460;SDS011;2243;48.812;9.232;2022-12-07T16:20:44;13.20;;;7.73;;
4460;SDS011;2243;48.812;9.232;2022-12-07T16:23:19;7.97;;;6.90;;
4460;SDS011;2243;48.812;9.232;2022-12-07T16:25:50;13.50;;;7.00;;
4460;SDS011;2243;48.812;9.232;2022-12-07T16:28:21;8.30;;;6.73;;
4460;SDS011;2243;48.812;9.232;2022-12-07T16:30:59;9.93;;;7.03;;
4460;SDS011;2243;48.812;9.232;2022-12-07T16:33:35;10.90;;;7.77;;
4460;SDS011;2243;48.812;9.232;2022-12-07T16:36:08;9.80;;;7.33;;
4460;SDS011;2243;48.812;9.232;2022-12-07T16:38:41;10.27;;;7.33;;
4460;SDS011;2243;48.812;9.232;2022-12-07T16:41:21;11.23;;;7.83;;
4460;SDS011;2243;48.812;9.232;2022-12-07T16:43:51;7.70;;;6.83;;
4460;SDS011;2243;48.812;9.232;2022-12-07T16:46:22;12.80;;;7.97;;
4460;SDS011;2243;48.812;9.232;2022-12-07T16:48:53;9.50;;;7.30;;
4460;SDS011;2243;48.812;9.232;2022-12-07T16:51:25;8.90;;;7.47;;
4460;SDS011;2243;48.812;9.232;2022-12-07T16:53:56;10.20;;;6.43;;
4460;SDS011;2243;48.812;9.232;2022-12-07T16:56:27;8.60;;;7.00;;
4460;SDS011;2243;48.812;9.232;2022-12-07T16:58:59;10.23;;;7.80;;
4460;SDS011;2243;48.812;9.232;2022-12-07T17:01:31;13.77;;;8.50;;
4460;SDS011;2243;48.812;9.232;2022-12-07T17:04:06;13.20;;;8.00;;
4460;SDS011;2243;48.812;9.232;2022-12-07T17:06:39;10.30;;;7.03;;
4460;SDS011;2243;48.812;9.232;2022-12-07T17:09:09;11.17;;;8.97;;
4460;SDS011;2243;48.812;9.232;2022-12-07T17:11:50;9.03;;;7.27;;
4460;SDS011;2243;48.812;9.232;2022-12-07T17:14:21;23.87;;;16.20;;
4460;SDS011;2243;48.812;9.232;2022-12-07T17:17:11;13.10;;;10.10;;
4460;SDS011;2243;48.812;9.232;2022-12-07T17:19:41;17.27;;;11.90;;
4460;SDS011;2243;48.812;9.232;2022-12-07T17:22:13;14.47;;;9.90;;
4460;SDS011;2243;48.812;9.232;2022-12-07T17:24:43;11.63;;;10.47;;
4460;SDS011;2243;48.812;9.232;2022-12-07T17:27:14;18.40;;;16.50;;
4460;SDS011;2243;48.812;9.232;2022-12-07T17:29:46;17.83;;;14.73;;
4460;SDS011;2243;48.812;9.232;2022-12-07T17:32:17;13.83;;;11.20;;
4460;SDS011;2243;48.812;9.232;2022-12-07T17:34:48;11.30;;;8.87;;
4460;SDS011;2243;48.812;9.232;2022-12-07T17:37:19;8.83;;;7.37;;
4460;SDS011;2243;48.812;9.232;2022-12-07T17:39:51;9.80;;;7.20;;
4460;SDS011;2243;48.812;9.232;2022-12-07T17:42:26;8.57;;;7.13;;
4460;SDS011;2243;48.812;9.232;2022-12-07T17:45:07;11.93;;;7.50;;
4460;SDS011;2243;48.812;9.232;2022-12-07T17:47:40;11.10;;;8.10;;
4460;SDS011;2243;48.812;9.232;2022-12-07T17:50:11;10.53;;;7.57;;
4460;SDS011;2243;48.812;9.232;2022-12-07T17:52:42;9.63;;;6.57;;
4460;SDS011;2243;48.812;9.232;2022-12-07T17:55:31;7.93;;;6.13;;
4460;SDS011;2243;48.812;9.232;2022-12-07T17:58:22;6.37;;;5.57;;
4460;SDS011;2243;48.812;9.232;2022-12-07T18:00:53;7.40;;;5.77;;
4460;SDS011;2243;48.812;9.232;2022-12-07T18:03:24;9.47;;;6.77;;
4460;SDS011;2243;48.812;9.232;2022-12-07T18:05:55;8.30;;;7.20;;
4460;SDS011;2243;48.812;9.232;2022-12-07T18:08:26;9.20;;;7.20;;
4460;SDS011;2243;48.812;9.232;2022-12-07T18:10:57;13.00;;;8.20;;
4460;SDS011;2243;48.812;9.232;2022-12-07T18:13:29;7.93;;;7.13;;